createdAt,value
2019-03-10T00:02:10.606Z,55.96
2019-03-10T00:04:41.731Z,55.96
2019-03-10T00:07:10.988Z,55.97
2019-03-10T00:09:42.705Z,55.99
2019-03-10T00:12:14.369Z,55.99
2019-03-10T00:14:46.693Z,56.01
2019-03-10T00:17:18.365Z,56.03
2019-03-10T00:19:50.031Z,56.01
2019-03-10T00:22:21.802Z,56.03
2019-03-10T00:24:53.457Z,56.09
2019-03-10T00:27:25.108Z,56.11
2019-03-10T00:29:57.457Z,56.19
2019-03-10T00:32:29.107Z,56.22
2019-03-10T00:35:01.379Z,56.26
2019-03-10T00:37:33.042Z,56.27
2019-03-10T00:40:58.573Z,56.31
2019-03-10T00:44:38.564Z,56.36
2019-03-10T00:48:15.899Z,56.32
2019-03-10T00:51:44.240Z,56.37
2019-03-10T00:54:16.127Z,56.46
2019-03-10T00:56:47.790Z,56.52
2019-03-10T00:59:20.007Z,56.63
2019-03-10T01:01:51.734Z,56.68
2019-03-10T01:04:25.282Z,56.72
2019-03-10T01:06:58.185Z,56.74
2019-03-10T01:09:31.911Z,56.78
2019-03-10T01:12:04.624Z,56.79
2019-03-10T01:14:36.247Z,56.81
2019-03-10T01:17:07.938Z,56.81
2019-03-10T01:19:40.594Z,56.82
2019-03-10T01:22:13.186Z,56.81
2019-03-10T01:24:44.983Z,56.84
2019-03-10T01:27:16.633Z,56.86
2019-03-10T01:29:48.299Z,56.90
2019-03-10T01:33:19.237Z,56.94
2019-03-10T01:35:52.123Z,56.99
2019-03-10T01:38:24.019Z,56.92
2019-03-10T01:40:55.710Z,57.01
2019-03-10T01:43:27.357Z,57.10
2019-03-10T01:45:59.002Z,57.11
2019-03-10T01:48:30.599Z,57.11
2019-03-10T01:51:02.775Z,57.11
2019-03-10T01:53:35.061Z,57.11
2019-03-10T01:56:06.682Z,57.10
2019-03-10T01:58:38.362Z,57.09
2019-03-10T02:01:09.950Z,57.08
2019-03-10T02:03:40.811Z,57.10
2019-03-10T02:06:10.062Z,57.11
2019-03-10T02:08:42.368Z,57.11
2019-03-10T02:11:14.048Z,57.13
2019-03-10T02:13:45.701Z,57.15
2019-03-10T02:16:17.393Z,57.14
2019-03-10T02:18:50.240Z,57.15
2019-03-10T02:21:21.859Z,57.14
2019-03-10T02:23:55.253Z,57.16
2019-03-10T02:26:27.458Z,57.16
2019-03-10T02:28:59.470Z,57.23
2019-03-10T02:31:31.316Z,57.24
2019-03-10T02:34:02.988Z,57.25
2019-03-10T02:36:42.896Z,57.28
2019-03-10T02:39:17.015Z,57.30
2019-03-10T02:41:49.412Z,57.29
2019-03-10T02:44:32.149Z,57.29
2019-03-10T02:47:11.748Z,57.31
2019-03-10T02:49:45.654Z,57.30
2019-03-10T02:52:22.245Z,57.28
2019-03-10T02:54:57.623Z,57.29
2019-03-10T02:57:35.488Z,57.28
2019-03-10T03:00:15.285Z,57.29
2019-03-10T03:02:46.928Z,57.29
2019-03-10T03:05:17.825Z,57.33
2019-03-10T03:07:47.078Z,57.36
2019-03-10T03:10:18.721Z,57.40
2019-03-10T03:12:50.997Z,57.48
2019-03-10T03:15:22.612Z,57.53
2019-03-10T03:17:55.614Z,57.61
2019-03-10T03:20:27.234Z,57.84
2019-03-10T03:22:58.909Z,58.01
2019-03-10T03:25:30.538Z,58.20
2019-03-10T03:28:02.741Z,58.39
2019-03-10T03:30:34.410Z,58.56
2019-03-10T03:33:06.098Z,58.71
2019-03-10T03:35:54.211Z,58.84
2019-03-10T03:38:34.324Z,58.96
2019-03-10T03:41:10.510Z,59.04
2019-03-10T03:43:42.508Z,59.14
2019-03-10T03:46:14.141Z,59.24
2019-03-10T03:48:45.796Z,59.26
2019-03-10T03:51:17.579Z,59.31
2019-03-10T03:53:49.189Z,59.31
2019-03-10T03:56:20.833Z,59.33
2019-03-10T03:58:53.065Z,59.35
2019-03-10T04:01:31.306Z,59.37
2019-03-10T04:04:03.113Z,59.35
2019-03-10T04:06:34.803Z,59.38
2019-03-10T04:09:08.467Z,59.43
2019-03-10T04:11:40.076Z,59.45
2019-03-10T04:14:12.244Z,59.45
2019-03-10T04:16:43.881Z,59.47
2019-03-10T04:19:15.619Z,59.49
2019-03-10T04:21:47.229Z,59.52
2019-03-10T04:24:18.891Z,59.55
2019-03-10T04:26:50.486Z,59.56
2019-03-10T04:29:22.684Z,59.59
2019-03-10T04:31:54.290Z,59.61
2019-03-10T04:34:25.938Z,59.61
2019-03-10T04:36:57.616Z,59.65
2019-03-10T04:39:29.287Z,59.62
2019-03-10T04:42:00.986Z,59.61
2019-03-10T04:44:33.253Z,59.62
2019-03-10T04:47:05.494Z,59.64
2019-03-10T04:49:37.098Z,59.63
2019-03-10T04:52:08.756Z,59.66
2019-03-10T04:55:17.634Z,59.65
2019-03-10T04:58:01.626Z,59.68
2019-03-10T05:00:35.283Z,59.66
2019-03-10T05:03:06.933Z,59.63
2019-03-10T05:05:39.114Z,59.66
2019-03-10T05:08:10.991Z,59.68
2019-03-10T05:10:41.711Z,59.71
2019-03-10T05:13:13.330Z,59.76
2019-03-10T05:15:45.521Z,59.82
2019-03-10T05:18:17.147Z,59.86
2019-03-10T05:20:49.156Z,59.87
2019-03-10T05:23:38.983Z,59.92
2019-03-10T05:26:11.277Z,59.95
2019-03-10T05:28:55.748Z,59.92
2019-03-10T05:31:27.705Z,59.97
2019-03-10T05:33:59.359Z,60.01
2019-03-10T05:36:31.055Z,60.04
2019-03-10T05:39:02.676Z,60.10
2019-03-10T05:41:34.292Z,60.12
2019-03-10T05:44:06.214Z,60.16
2019-03-10T05:46:38.574Z,60.18
2019-03-10T05:49:10.193Z,60.20
2019-03-10T05:51:42.129Z,60.27
2019-03-10T05:54:13.798Z,60.33
2019-03-10T05:56:45.439Z,60.40
2019-03-10T05:59:17.084Z,60.47
2019-03-10T06:01:49.191Z,60.55
2019-03-10T06:04:20.988Z,60.64
2019-03-10T06:06:52.642Z,60.69
2019-03-10T06:09:24.305Z,60.74
2019-03-10T06:11:56.287Z,60.77
2019-03-10T06:14:27.917Z,60.86
2019-03-10T06:17:00.208Z,61.03
2019-03-10T06:19:31.814Z,61.10
2019-03-10T06:22:03.469Z,61.17
2019-03-10T06:24:35.127Z,61.24
2019-03-10T06:27:06.811Z,61.33
2019-03-10T06:29:38.475Z,61.36
2019-03-10T06:32:10.535Z,61.38
2019-03-10T06:34:42.580Z,61.41
2019-03-10T06:37:14.640Z,61.44
2019-03-10T06:39:46.312Z,61.43
2019-03-10T06:42:18.259Z,61.43
2019-03-10T06:44:49.953Z,61.44
2019-03-10T06:47:21.607Z,61.48
2019-03-10T06:49:53.710Z,61.56
2019-03-10T06:52:26.192Z,61.66
2019-03-10T06:54:57.979Z,61.79
2019-03-10T06:57:29.630Z,61.85
2019-03-10T07:00:01.363Z,61.96
2019-03-10T07:02:33.011Z,62.14
2019-03-10T07:05:05.275Z,62.38
2019-03-10T07:07:36.909Z,62.57
2019-03-10T07:10:11.174Z,62.91
2019-03-10T07:12:43.013Z,63.09
2019-03-10T07:15:16.182Z,63.41
2019-03-10T07:17:47.826Z,63.54
2019-03-10T07:20:20.036Z,63.77
2019-03-10T07:22:51.653Z,63.84
2019-03-10T07:25:23.267Z,64.09
2019-03-10T07:28:06.760Z,64.32
2019-03-10T07:30:52.940Z,64.41
2019-03-10T07:33:46.483Z,64.63
2019-03-10T07:36:36.149Z,64.66
2019-03-10T07:39:22.544Z,64.77
2019-03-10T07:42:08.697Z,64.94
2019-03-10T07:44:48.131Z,64.91
2019-03-10T07:47:38.678Z,64.92
2019-03-10T07:50:24.805Z,65.03
2019-03-10T07:53:16.137Z,65.17
2019-03-10T07:55:56.993Z,65.15
2019-03-10T07:58:44.206Z,65.13
2019-03-10T08:01:30.244Z,65.10
2019-03-10T08:04:12.644Z,65.11
2019-03-10T08:07:10.727Z,65.13
2019-03-10T08:09:57.800Z,65.27
2019-03-10T08:12:48.842Z,65.38
2019-03-10T08:15:42.553Z,65.30
2019-03-10T08:18:31.762Z,65.38
2019-03-10T08:21:25.106Z,65.37
2019-03-10T08:24:14.368Z,65.46
2019-03-10T08:27:04.941Z,65.50
2019-03-10T08:30:04.317Z,65.68
2019-03-10T08:32:54.073Z,65.74
2019-03-10T08:35:42.709Z,65.75
2019-03-10T08:38:32.009Z,65.73
2019-03-10T08:41:25.859Z,65.79
2019-03-10T08:44:20.568Z,65.79
2019-03-10T08:46:58.938Z,65.84
2019-03-10T08:49:45.415Z,65.88
2019-03-10T08:52:24.421Z,65.98
2019-03-10T08:55:07.375Z,66.10
2019-03-10T08:57:57.839Z,66.05
2019-03-10T09:00:47.401Z,66.04
2019-03-10T09:03:29.391Z,66.02
2019-03-10T09:06:13.684Z,66.00
2019-03-10T09:09:07.661Z,66.03
2019-03-10T09:12:10.347Z,66.01
2019-03-10T09:15:13.274Z,65.97
2019-03-10T09:17:56.897Z,65.88
2019-03-10T09:20:38.538Z,65.94
2019-03-10T09:23:24.371Z,65.88
2019-03-10T09:26:04.238Z,65.82
2019-03-10T09:28:50.550Z,65.77
2019-03-10T09:31:44.162Z,65.70
2019-03-10T09:34:24.302Z,65.81
2019-03-10T09:37:06.800Z,65.76
2019-03-10T09:39:49.195Z,65.72
2019-03-10T09:42:43.231Z,65.78
2019-03-10T09:45:40.471Z,65.80
2019-03-10T09:48:34.017Z,65.80
2019-03-10T09:51:23.581Z,65.83
2019-03-10T09:54:13.132Z,65.87
2019-03-10T09:57:02.590Z,66.01
2019-03-10T09:59:56.190Z,65.94
2019-03-10T10:02:50.326Z,65.95
2019-03-10T10:05:50.152Z,65.99
2019-03-10T10:08:35.154Z,65.94
2019-03-10T10:11:21.412Z,65.89
2019-03-10T10:14:04.846Z,65.90
2019-03-10T10:16:52.313Z,65.84
2019-03-10T10:19:30.273Z,65.84
2019-03-10T10:22:27.355Z,65.81
2019-03-10T10:25:19.449Z,65.88
2019-03-10T10:28:28.172Z,65.92
2019-03-10T10:31:21.287Z,65.95
2019-03-10T10:34:17.617Z,65.79
2019-03-10T10:37:14.053Z,65.77
2019-03-10T10:40:04.621Z,65.85
2019-03-10T10:43:10.226Z,66.10
2019-03-10T10:46:00.061Z,66.08
2019-03-10T10:48:55.812Z,66.02
2019-03-10T10:51:41.123Z,65.99
2019-03-10T10:54:31.810Z,65.84
2019-03-10T10:57:19.237Z,65.76
2019-03-10T11:05:48.759Z,64.90
2019-03-10T11:08:48.568Z,64.65
2019-03-10T11:11:42.240Z,64.16
2019-03-10T11:14:42.251Z,63.50
2019-03-10T11:17:34.912Z,63.50
2019-03-10T11:20:16.669Z,63.30
2019-03-10T11:22:57.798Z,62.84
2019-03-10T11:25:37.774Z,62.56
2019-03-10T11:28:34.611Z,62.15
2019-03-10T11:31:25.359Z,62.19
2019-03-10T11:34:16.282Z,61.94
2019-03-10T11:36:59.758Z,61.35
2019-03-10T11:39:39.803Z,61.53
2019-03-10T11:42:30.252Z,61.23
2019-03-10T11:45:16.493Z,60.92
2019-03-10T11:48:22.362Z,60.50
2019-03-10T11:51:09.626Z,60.56
2019-03-10T11:53:50.554Z,60.14
2019-03-10T11:56:44.221Z,60.27
2019-03-10T11:59:27.087Z,59.98
2019-03-10T12:02:16.199Z,59.62
2019-03-10T12:05:03.925Z,59.66
2019-03-10T12:07:55.511Z,59.48
2019-03-10T12:10:27.692Z,59.21
2019-03-10T12:12:59.462Z,59.11
2019-03-10T12:15:31.127Z,58.95
2019-03-10T12:18:03.284Z,58.79
2019-03-10T12:20:36.290Z,59.28
2019-03-10T12:23:08.392Z,59.81
2019-03-10T12:25:40.469Z,60.31
2019-03-10T12:28:12.261Z,60.73
2019-03-10T12:30:44.055Z,61.11
2019-03-10T12:33:16.297Z,61.66
2019-03-10T12:35:48.033Z,62.60
2019-03-10T12:38:19.763Z,63.08
2019-03-10T12:40:51.838Z,63.37
2019-03-10T12:43:23.642Z,63.87
2019-03-10T12:45:55.386Z,64.28
2019-03-10T12:48:27.387Z,64.39
2019-03-10T12:50:59.141Z,64.23
2019-03-10T12:53:30.932Z,64.08
2019-03-10T12:56:02.723Z,64.17
2019-03-10T12:58:34.973Z,64.18
2019-03-10T13:01:06.995Z,64.12
2019-03-10T13:03:39.051Z,63.95
2019-03-10T13:06:11.110Z,63.81
2019-03-10T13:08:42.864Z,63.38
2019-03-10T13:11:14.652Z,62.81
2019-03-10T13:13:47.214Z,62.13
2019-03-10T13:16:18.977Z,61.59
2019-03-10T13:18:50.742Z,60.45
2019-03-10T13:21:22.874Z,59.35
2019-03-10T13:23:54.967Z,59.38
2019-03-10T13:26:26.836Z,59.20
2019-03-10T13:28:59.227Z,58.72
2019-03-10T13:31:31.081Z,58.07
2019-03-10T13:34:02.832Z,57.72
2019-03-10T13:36:34.574Z,56.80
2019-03-10T13:39:08.790Z,56.07
2019-03-10T13:41:40.510Z,55.55
2019-03-10T13:44:12.976Z,55.46
2019-03-10T13:46:44.681Z,54.77
2019-03-10T13:49:16.233Z,54.09
2019-03-10T13:51:47.957Z,53.41
2019-03-10T13:54:19.718Z,53.45
2019-03-10T13:56:51.478Z,53.25
2019-03-10T13:59:23.865Z,52.78
2019-03-10T14:01:55.554Z,51.98
2019-03-10T14:04:27.379Z,51.93
2019-03-10T14:06:59.384Z,51.59
2019-03-10T14:09:31.142Z,51.63
2019-03-10T14:12:02.904Z,50.90
2019-03-10T14:14:35.407Z,50.03
2019-03-10T14:17:07.123Z,50.07
2019-03-10T14:19:38.835Z,49.27
2019-03-10T14:22:10.524Z,49.14
2019-03-10T14:24:42.211Z,49.00
2019-03-10T14:27:13.969Z,48.94
2019-03-10T14:29:45.730Z,48.60
2019-03-10T14:32:18.430Z,47.84
2019-03-10T14:34:50.232Z,48.12
2019-03-10T14:37:22.136Z,47.38
2019-03-10T14:39:53.876Z,46.83
2019-03-10T14:42:25.788Z,46.89
2019-03-10T14:44:57.533Z,46.95
2019-03-10T14:47:30.073Z,46.83
2019-03-10T14:50:01.995Z,46.76
2019-03-10T14:52:34.028Z,45.15
2019-03-10T14:55:06.354Z,46.23
2019-03-10T14:57:38.139Z,46.62
2019-03-10T15:00:17.387Z,44.91
2019-03-10T15:02:49.750Z,43.79
2019-03-10T15:05:21.922Z,44.84
2019-03-10T15:07:53.646Z,44.30
2019-03-10T15:10:25.561Z,43.99
2019-03-10T15:12:57.352Z,43.23
2019-03-10T15:15:29.342Z,43.25
2019-03-10T15:18:02.979Z,43.51
2019-03-10T15:20:35.042Z,43.30
2019-03-10T15:23:06.827Z,43.03
2019-03-10T15:25:38.851Z,43.01
2019-03-10T15:28:10.569Z,43.41
2019-03-10T15:30:42.290Z,43.11
2019-03-10T15:33:15.076Z,44.20
2019-03-10T15:35:46.860Z,43.69
2019-03-10T15:38:18.697Z,43.81
2019-03-10T15:40:50.408Z,43.75
2019-03-10T15:43:22.213Z,43.16
2019-03-10T15:45:53.921Z,43.26
2019-03-10T15:48:40.459Z,42.74
2019-03-10T15:51:12.302Z,43.17
2019-03-10T15:53:44.314Z,42.61
2019-03-10T15:56:16.511Z,43.21
2019-03-10T15:58:48.594Z,43.13
2019-03-10T16:01:20.546Z,42.87
2019-03-10T16:03:53.072Z,42.97
2019-03-10T16:06:25.953Z,43.05
2019-03-10T16:08:57.864Z,42.71
2019-03-10T16:11:29.808Z,41.60
2019-03-10T16:14:01.625Z,40.48
2019-03-10T16:16:34.528Z,40.92
2019-03-10T16:19:07.744Z,41.58
2019-03-10T16:21:39.875Z,41.45
2019-03-10T16:24:11.732Z,41.82
2019-03-10T16:26:43.677Z,41.60
2019-03-10T16:29:15.691Z,41.24
2019-03-10T16:31:47.607Z,41.78
2019-03-10T16:34:19.483Z,41.79
2019-03-10T16:36:51.854Z,42.09
2019-03-10T16:39:23.732Z,41.32
2019-03-10T16:41:55.639Z,41.90
2019-03-10T16:44:27.433Z,40.87
2019-03-10T16:46:59.356Z,39.91
2019-03-10T16:49:31.295Z,40.26
2019-03-10T16:52:03.408Z,40.10
2019-03-10T16:54:35.580Z,40.53
2019-03-10T16:57:07.935Z,40.74
2019-03-10T16:59:40.043Z,41.44
2019-03-10T17:02:12.676Z,41.31
2019-03-10T17:04:44.521Z,41.65
2019-03-10T17:07:16.813Z,41.67
2019-03-10T17:09:48.708Z,41.57
2019-03-10T17:12:20.921Z,41.11
2019-03-10T17:14:52.676Z,41.58
2019-03-10T17:17:24.581Z,41.72
2019-03-10T17:19:56.289Z,41.88
2019-03-10T17:22:28.288Z,42.09
2019-03-10T17:25:00.013Z,41.84
2019-03-10T17:27:32.247Z,42.07
2019-03-10T17:30:04.197Z,41.86
2019-03-10T17:32:37.414Z,41.92
2019-03-10T17:35:09.517Z,42.12
2019-03-10T17:37:41.310Z,41.90
2019-03-10T17:40:16.280Z,41.60
2019-03-10T17:42:48.674Z,41.88
2019-03-10T17:45:20.839Z,41.91
2019-03-10T17:47:52.748Z,41.98
2019-03-10T17:50:24.826Z,42.18
2019-03-10T17:52:56.830Z,42.00
2019-03-10T17:55:28.673Z,41.79
2019-03-10T17:58:00.463Z,42.41
2019-03-10T18:00:33.628Z,43.00
2019-03-10T18:03:05.345Z,43.60
2019-03-10T18:05:42.214Z,44.06
2019-03-10T18:08:14.077Z,44.13
2019-03-10T18:10:46.199Z,44.07
2019-03-10T18:13:18.019Z,44.32
2019-03-10T18:15:50.373Z,44.46
2019-03-10T18:18:22.141Z,44.70
2019-03-10T18:20:53.970Z,44.55
2019-03-10T18:23:25.739Z,44.66
2019-03-10T18:25:57.628Z,44.64
2019-03-10T18:28:29.588Z,44.79
2019-03-10T18:31:01.823Z,44.74
2019-03-10T18:33:33.662Z,43.86
2019-03-10T18:36:05.502Z,44.32
2019-03-10T18:38:37.365Z,44.40
2019-03-10T18:41:09.260Z,44.55
2019-03-10T18:43:41.147Z,44.36
2019-03-10T18:46:13.667Z,44.41
2019-03-10T18:48:45.726Z,44.51
2019-03-10T18:51:17.529Z,44.44
2019-03-10T18:53:49.693Z,44.48
2019-03-10T18:56:21.940Z,44.59
2019-03-10T18:58:53.777Z,44.43
2019-03-10T19:01:26.200Z,44.24
2019-03-10T19:03:58.212Z,44.45
2019-03-10T19:06:30.607Z,44.47
2019-03-10T19:09:02.637Z,44.44
2019-03-10T19:11:34.523Z,44.43
2019-03-10T19:14:06.713Z,44.36
2019-03-10T19:16:38.870Z,44.15
2019-03-10T19:19:11.170Z,44.09
2019-03-10T19:21:43.040Z,44.15
2019-03-10T19:24:14.901Z,44.05
2019-03-10T19:26:46.773Z,43.96
2019-03-10T19:29:18.726Z,44.05
2019-03-10T19:31:51.552Z,44.27
2019-03-10T19:34:23.365Z,44.28
2019-03-10T19:36:57.325Z,44.18
2019-03-10T19:39:28.666Z,44.27
2019-03-10T19:42:00.532Z,44.19
2019-03-10T19:44:32.328Z,44.20
2019-03-10T19:47:04.036Z,44.09
2019-03-10T19:49:36.258Z,44.08
2019-03-10T19:52:08.192Z,43.98
2019-03-10T19:54:40.007Z,43.96
2019-03-10T19:57:11.827Z,43.87
2019-03-10T19:59:43.662Z,43.87
2019-03-10T20:02:15.510Z,43.66
2019-03-10T20:04:47.716Z,43.54
2019-03-10T20:07:19.903Z,43.54
2019-03-10T20:09:51.738Z,43.51
2019-03-10T20:12:23.718Z,43.40
2019-03-10T20:14:55.633Z,43.55
2019-03-10T20:17:27.430Z,43.16
2019-03-10T20:19:59.764Z,43.23
2019-03-10T20:22:31.779Z,43.08
2019-03-10T20:25:03.664Z,43.33
2019-03-10T20:27:35.571Z,43.21
2019-03-10T20:30:08.912Z,43.42
2019-03-10T20:32:40.769Z,43.41
2019-03-10T20:35:13.373Z,43.47
2019-03-10T20:37:45.281Z,43.54
2019-03-10T20:40:17.773Z,43.58
2019-03-10T20:42:49.874Z,43.64
2019-03-10T20:45:24.155Z,43.75
2019-03-10T20:47:56.543Z,43.85
2019-03-10T20:55:31.505Z,44.01
2019-03-10T20:58:03.520Z,44.14
2019-03-10T21:00:35.337Z,44.30
2019-03-10T21:03:07.049Z,44.43
2019-03-10T21:05:39.344Z,44.55
2019-03-10T21:08:11.061Z,44.65
2019-03-10T21:10:44.049Z,44.77
2019-03-10T21:13:15.791Z,44.85
2019-03-10T21:15:47.751Z,44.95
2019-03-10T21:18:19.528Z,44.99
2019-03-10T21:20:51.412Z,45.06
2019-03-10T21:23:23.201Z,45.15
2019-03-10T21:25:55.257Z,45.23
2019-03-10T21:28:27.034Z,45.25
2019-03-10T21:30:58.807Z,45.24
2019-03-10T21:33:30.608Z,45.18
2019-03-10T21:36:02.505Z,45.16
2019-03-10T21:38:34.242Z,45.11
2019-03-10T21:41:13.749Z,45.03
2019-03-10T21:43:39.461Z,44.99
2019-03-10T21:46:11.280Z,44.86
2019-03-10T21:48:42.948Z,44.88
2019-03-10T21:51:14.751Z,44.98
2019-03-10T21:53:46.458Z,45.03
2019-03-10T21:56:18.266Z,44.99
2019-03-10T21:58:49.972Z,44.98
2019-03-10T22:01:21.677Z,44.84
2019-03-10T22:03:53.569Z,44.74
2019-03-10T22:06:25.692Z,44.67
2019-03-10T22:08:57.491Z,44.60
2019-03-10T22:11:29.141Z,44.57
2019-03-10T22:14:01.198Z,44.62
2019-03-10T22:16:32.887Z,44.55
2019-03-10T22:19:04.569Z,44.56
2019-03-10T22:21:36.301Z,44.60
2019-03-10T22:24:08.132Z,44.48
2019-03-10T22:26:39.958Z,44.57
2019-03-10T22:29:11.711Z,44.65
2019-03-10T22:31:43.485Z,44.63
2019-03-10T22:34:15.174Z,44.60
2019-03-10T22:36:47.475Z,44.64
2019-03-10T22:39:19.216Z,44.77
2019-03-10T22:41:51.211Z,44.84
2019-03-10T22:44:22.962Z,44.85
2019-03-10T22:46:54.648Z,44.91
2019-03-10T22:49:26.393Z,44.88
2019-03-10T22:51:57.997Z,44.85
2019-03-10T22:54:29.762Z,44.80
2019-03-10T22:57:01.366Z,44.83
2019-03-10T22:59:33.030Z,44.82
2019-03-10T23:02:04.845Z,44.86
2019-03-10T23:04:36.478Z,44.83
2019-03-10T23:07:09.335Z,44.71
2019-03-10T23:09:41.208Z,44.75
2019-03-10T23:12:12.876Z,44.70
2019-03-10T23:14:44.779Z,44.47
2019-03-10T23:17:16.432Z,44.64
2019-03-10T23:19:48.792Z,44.59
2019-03-10T23:22:20.445Z,44.67
2019-03-10T23:24:52.780Z,44.67
2019-03-10T23:27:24.366Z,44.60
2019-03-10T23:29:56.119Z,44.58
2019-03-10T23:32:27.688Z,44.53
2019-03-10T23:34:59.350Z,44.57
2019-03-10T23:37:31.089Z,44.57
2019-03-10T23:40:03.431Z,44.57
2019-03-10T23:42:35.054Z,44.56
2019-03-10T23:45:08.259Z,44.58
2019-03-10T23:47:39.850Z,44.50
2019-03-10T23:50:12.031Z,44.45
2019-03-10T23:52:43.658Z,44.52
2019-03-10T23:55:16.111Z,44.56
2019-03-10T23:57:48.529Z,44.59
